PDT,Max TemperatureF,Mean TemperatureF,Min TemperatureF,Max Dew PointF,MeanDew PointF,Min DewpointF,Max Humidity, Mean Humidity, Min Humidity, Max Sea Level PressureIn, Mean Sea Level PressureIn, Min Sea Level PressureIn, Max VisibilityMiles, Mean VisibilityMiles, Min VisibilityMiles, Max Wind SpeedMPH, Mean Wind SpeedMPH, Max Gust SpeedMPH,PrecipitationIn, CloudCover, Events, WindDirDegrees
2013-10-1,58,53,47,54,48,43,89,83,77,30.09,29.98,29.86,10,5,1,14,4,20,0.49,8,Rain,209
2013-10-2,59,51,43,48,45,39,93,78,62,30.20,30.10,30.04,10,4,0,14,2,22,0.69,6,Fog-Rain-Thunderstorm,114
2013-10-3,61,51,40,47,42,38,92,75,57,30.45,30.32,30.19,9,4,0,8,2,10,0.00,4,Fog,83
2013-10-4,65,54,42,47,43,39,92,72,52,30.46,30.43,30.35,9,5,0,9,3,12,0.00,3,Fog,86
2013-10-5,72,62,51,52,48,44,89,65,40,30.35,30.25,30.12,10,8,7,9,2,12,0.00,4,,44
2013-10-6,75,61,47,55,51,39,93,61,29,30.10,29.91,29.84,8,6,1,24,8,43,0.63,5,Rain,172
2013-10-7,61,57,53,52,50,46,89,77,64,30.07,29.96,29.86,8,4,1,17,8,24,0.69,8,Rain,252
2013-10-8,62,52,42,47,45,40,89,70,51,30.10,30.03,29.99,7,6,5,16,7,24,0.00,5,,311
2013-10-9,60,50,39,48,44,36,92,75,57,30.13,30.07,29.98,7,6,5,9,2,13,0.00,3,,171
2013-10-10,58,52,45,52,47,43,93,83,72,30.07,29.99,29.94,7,4,0,7,2,14,0.01,7,Fog-Rain,59
2013-10-11,58,52,45,49,45,42,86,74,62,30.14,30.10,30.07,8,6,1,9,2,22,0.02,7,Rain,230
2013-10-12,62,51,40,48,43,37,92,74,55,30.22,30.15,30.08,7,4,0,10,2,14,0.07,3,Fog-Rain,96
2013-10-13,63,50,36,49,41,34,89,70,51,30.36,30.30,30.22,7,5,1,12,3,15,0.00,0,,16
2013-10-14,63,50,37,49,41,33,89,75,60,30.41,30.38,30.36,6,5,2,10,2,13,0.00,0,,183
2013-10-15,65,52,39,51,43,36,89,75,60,30.38,30.31,30.19,6,4,1,14,1,17,0.00,0,,311
2013-10-16,62,53,43,51,44,39,93,80,67,30.19,30.17,30.15,6,2,0,9,2,10,0.00,1,Fog,182
2013-10-17,60,51,41,50,44,37,93,83,72,30.27,30.23,30.19,6,1,0,8,1,30,0.00,5,Fog,264
2013-10-18,67,52,37,52,41,33,92,75,58,30.23,30.18,30.14,7,3,0,8,1,18,0.00,2,Fog,230
2013-10-19,52,45,37,49,41,34,96,90,83,30.19,30.16,30.14,7,1,0,7,1,8,0.00,8,Fog,224
2013-10-20,54,49,44,48,45,42,93,88,83,30.19,30.16,30.12,7,2,0,7,2,10,0.00,8,Fog,271
2013-10-21,73,55,37,55,41,34,93,74,55,30.13,30.10,30.04,7,2,0,7,1,8,0.00,2,Fog,265
2013-10-22,72,57,41,55,47,37,93,76,59,30.07,30.02,30.00,8,4,0,9,1,10,0.00,0,Fog,163
2013-10-23,57,49,40,52,45,36,93,88,82,30.04,30.02,30.01,7,2,0,7,1,13,0.00,5,Fog,287
2013-10-24,57,50,42,50,46,39,93,85,77,30.13,30.07,30.03,6,2,0,7,2,10,0.00,7,Fog,11
2013-10-25,62,54,46,50,46,43,93,79,64,30.33,30.22,30.13,9,4,0,12,3,14,0.01,6,Fog-Rain,314
2013-10-26,61,53,45,48,45,41,93,77,60,30.33,30.29,30.21,8,6,4,12,3,15,0.00,5,,358
2013-10-27,66,57,48,49,45,35,86,63,40,30.19,30.01,29.94,9,6,2,23,7,32,0.05,4,Rain,355
2013-10-28,62,52,42,34,29,26,57,42,27,29.96,29.94,29.91,10,10,8,30,13,40,0.00,0,,46
2013-10-29,62,48,33,38,33,28,79,57,35,30.04,30.00,29.95,10,9,7,9,2,12,0.00,1,,146
2013-10-30,58,48,38,50,44,34,89,76,63,30.09,30.07,30.04,9,5,1,15,6,22,0.42,8,Rain,135
2013-10-31,60,56,52,54,51,48,93,87,80,30.27,30.17,30.04,10,4,0,8,2,13,0.07,8,Fog-Rain,217